Time;durP1;ratioP1;P1;durP2;ratioP2;P2;SDS_P1;SDS_P2;PMS_P1;PMS_P2;Temp;Humidity;BMP_temperature;BMP_pressure;BME280_temperature;BME280_humidity;BME280_pressure;Samples;Min_cycle;Max_cycle;Signal;HPM_P1;HPM_P2
2021/09/21 00:02:19;;;;;;;4.22;3.92;;;;;;;12.61;52.66;102720.59;10568433;28;20051;-79
2021/09/21 00:07:19;;;;;;;6.88;5.80;;;;;;;13.11;52.68;102814.81;10585981;28;20089;-79
2021/09/21 00:12:19;;;;;;;8.45;5.45;;;;;;;11.53;53.17;102568.31;10551088;28;20046;-79
2021/09/21 00:17:20;;;;;;;11.70;6.30;;;;;;;12.66;52.71;102757.13;10567519;28;20120;-79
2021/09/21 00:22:20;;;;;;;6.28;5.68;;;;;;;13.03;53.37;102819.25;10550877;28;20163;-78
2021/09/21 00:27:21;;;;;;;7.25;5.28;;;;;;;11.87;53.07;102628.03;10585738;28;20032;-80
2021/09/21 00:32:25;;;;;;;8.00;5.65;;;;;;;12.97;52.80;102810.91;10568000;28;20032;-79
2021/09/21 00:37:25;;;;;;;6.07;5.47;;;;;;;12.84;52.68;102824.13;10550862;28;20046;-79
2021/09/21 00:42:28;;;;;;;6.20;5.45;;;;;;;12.48;52.33;102810.75;10568740;28;20028;-79
2021/09/21 00:47:28;;;;;;;13.07;5.45;;;;;;;12.43;52.46;102777.78;10587565;28;20036;-79
2021/09/21 00:52:29;;;;;;;8.02;6.85;;;;;;;12.30;52.88;102783.66;10586003;28;20031;-79
2021/09/21 00:57:30;;;;;;;10.90;6.07;;;;;;;12.52;53.14;102863.75;10585016;28;20582;-80
2021/09/21 01:02:30;;;;;;;8.45;6.40;;;;;;;12.56;53.49;102835.22;10549116;28;20142;-79
2021/09/21 01:07:31;;;;;;;10.85;7.13;;;;;;;12.28;52.86;102792.00;10585374;28;20035;-79
2021/09/21 01:12:31;;;;;;;10.73;6.70;;;;;;;12.28;52.77;102793.81;10566170;28;20028;-79
2021/09/21 01:17:32;;;;;;;7.25;6.00;;;;;;;11.57;52.62;102689.91;10583731;28;20035;-79
2021/09/21 01:22:32;;;;;;;7.53;6.50;;;;;;;12.29;53.48;102799.13;10548368;28;20339;-79
2021/09/21 01:27:33;;;;;;;6.32;5.82;;;;;;;12.07;52.96;102759.78;10584340;28;20039;-79
2021/09/21 01:32:33;;;;;;;7.32;6.60;;;;;;;12.37;52.69;102789.28;10550044;28;20478;-79
2021/09/21 01:37:34;;;;;;;12.98;6.13;;;;;;;12.37;52.75;102803.72;10566531;28;20122;-79
2021/09/21 01:42:36;;;;;;;9.70;7.47;;;;;;;12.06;52.85;102763.53;10584066;28;20032;-79
2021/09/21 01:47:37;;;;;;;9.85;6.22;;;;;;;11.92;53.11;102741.53;10566262;28;20066;-79
2021/09/21 01:52:48;;;;;;;8.40;7.28;;;;;;;12.29;53.02;102807.25;10549970;28;20051;-79
2021/09/21 02:03:07;;;;;;;7.78;7.03;;;;;;;12.10;53.20;102783.91;10583117;28;20048;-79
2021/09/21 02:08:08;;;;;;;6.97;6.13;;;;;;;12.18;53.25;102802.09;10584422;28;20395;-79
2021/09/21 02:13:08;;;;;;;10.27;6.65;;;;;;;12.20;53.21;102807.38;10565833;28;20035;-79
2021/09/21 02:18:08;;;;;;;6.47;5.88;;;;;;;12.08;53.24;102802.22;10563984;28;20046;-79
2021/09/21 02:23:09;;;;;;;8.43;7.47;;;;;;;11.53;53.27;102687.69;10564236;28;20119;-79
2021/09/21 02:28:09;;;;;;;10.70;6.82;;;;;;;11.75;53.27;102732.44;10564861;28;20039;-79
2021/09/21 02:33:12;;;;;;;8.18;6.45;;;;;;;11.88;53.50;102757.31;10583271;28;20046;-79
2021/09/21 02:38:12;;;;;;;8.35;7.32;;;;;;;11.63;53.30;102734.56;10564041;28;20097;-79
2021/09/21 02:43:13;;;;;;;8.55;7.43;;;;;;;12.06;53.61;102822.38;10563574;28;20157;-79
2021/09/21 02:48:13;;;;;;;10.38;8.23;;;;;;;12.01;53.54;102822.03;10564183;28;20032;-79
2021/09/21 02:53:17;;;;;;;8.80;7.43;;;;;;;11.92;53.32;102831.97;10564155;28;20035;-79
2021/09/21 02:58:17;;;;;;;9.70;6.60;;;;;;;11.52;53.96;102775.50;10563132;28;20043;-79
2021/09/21 03:03:18;;;;;;;8.63;6.97;;;;;;;11.81;53.51;102843.94;10564232;28;20516;-79
2021/09/21 03:08:20;;;;;;;15.00;6.55;;;;;;;11.35;53.40;102774.53;10562948;28;20039;-79
2021/09/21 03:13:38;;;;;;;9.80;6.47;;;;;;;11.61;53.45;102831.53;10568257;28;20063;-80
2021/09/21 03:18:39;;;;;;;9.88;6.78;;;;;;;10.28;53.80;102626.34;10589620;28;20036;-79
2021/09/21 03:23:39;;;;;;;14.40;6.65;;;;;;;11.61;54.19;102847.81;10570618;28;20599;-79
2021/09/21 03:28:40;;;;;;;15.20;7.35;;;;;;;11.30;54.20;102799.41;10588264;28;20391;-79
2021/09/21 03:33:40;;;;;;;8.63;7.10;;;;;;;11.47;53.99;102876.38;10553052;28;20047;-79
2021/09/21 03:38:41;;;;;;;10.35;8.02;;;;;;;11.09;53.90;102796.16;10587775;28;20112;-78
2021/09/21 03:43:41;;;;;;;19.52;9.10;;;;;;;11.17;54.52;102816.06;10569741;28;20059;-79
2021/09/21 03:48:41;;;;;;;17.85;8.73;;;;;;;11.57;54.48;102882.56;10569649;28;20089;-79
2021/09/21 03:53:42;;;;;;;11.82;7.80;;;;;;;11.50;53.88;102875.22;10588594;28;20044;-79
2021/09/21 03:58:42;;;;;;;8.88;7.07;;;;;;;11.15;54.18;102828.94;10568878;28;20070;-79
2021/09/21 04:03:42;;;;;;;13.07;7.82;;;;;;;11.27;54.44;102848.53;10587140;28;20051;-79
2021/09/21 04:08:43;;;;;;;10.00;8.10;;;;;;;10.58;54.45;102738.88;10569987;28;20024;-79
2021/09/21 04:13:43;;;;;;;18.90;10.75;;;;;;;10.43;54.99;102692.53;10586313;28;20497;-78
2021/09/21 04:18:44;;;;;;;8.55;7.65;;;;;;;10.46;54.68;102719.31;10568912;28;20036;-79
2021/09/21 04:23:44;;;;;;;10.80;7.80;;;;;;;11.48;54.39;102894.34;10585930;28;20036;-79
2021/09/21 04:28:45;;;;;;;9.00;6.97;;;;;;;11.47;54.49;102892.63;10569908;28;20092;-78
2021/09/21 04:33:46;;;;;;;13.75;8.52;;;;;;;11.40;54.65;102897.00;10586045;28;20087;-77
2021/09/21 04:38:47;;;;;;;8.85;7.97;;;;;;;11.02;54.35;102843.88;10567087;28;20554;-78
2021/09/21 04:43:47;;;;;;;10.30;8.18;;;;;;;11.40;54.29;102918.69;10566891;28;20039;-78
2021/09/21 04:48:48;;;;;;;12.15;9.25;;;;;;;10.62;54.14;102793.59;10584679;28;20040;-78
2021/09/21 04:53:48;;;;;;;14.38;10.80;;;;;;;11.27;54.11;102908.22;10584945;28;20035;-81
2021/09/21 04:58:49;;;;;;;12.13;9.13;;;;;;;11.40;54.88;102924.13;10509201;28;20088;-80
2021/09/21 05:03:49;;;;;;;9.98;8.98;;;;;;;10.99;54.58;102863.16;10585668;28;20086;-79
2021/09/21 05:08:50;;;;;;;12.93;8.85;;;;;;;11.36;54.49;102926.28;10549075;28;20499;-79
2021/09/21 05:13:50;;;;;;;10.70;9.30;;;;;;;11.19;55.28;102916.25;10584327;28;20113;-80
2021/09/21 05:18:50;;;;;;;9.63;7.72;;;;;;;11.38;55.06;102943.25;10584036;28;20491;-77
2021/09/21 05:23:51;;;;;;;14.55;8.27;;;;;;;9.39;55.02;102593.63;10583790;28;20040;-79
2021/09/21 05:28:55;;;;;;;15.18;9.43;;;;;;;11.44;54.71;102943.66;10584738;28;20127;-79
2021/09/21 05:33:56;;;;;;;8.60;7.80;;;;;;;11.56;55.08;102972.28;10565372;28;20096;-79
2021/09/21 05:38:56;;;;;;;11.30;8.65;;;;;;;11.47;54.72;102921.63;10565673;28;20493;-79
2021/09/21 05:43:56;;;;;;;12.05;10.38;;;;;;;11.54;54.76;102904.56;10583904;28;20027;-78
2021/09/21 05:49:03;;;;;;;13.20;8.80;;;;;;;11.68;55.05;102895.06;10583701;28;20135;-79
2021/09/21 05:54:03;;;;;;;11.35;9.07;;;;;;;12.10;55.14;102932.44;10582700;28;20165;-79
2021/09/21 05:59:05;;;;;;;20.98;10.23;;;;;;;12.42;55.68;102926.38;10565635;28;20127;-79
2021/09/21 06:04:06;;;;;;;27.15;10.63;;;;;;;12.66;55.75;102925.63;10582676;28;20418;-79
2021/09/21 06:09:06;;;;;;;10.77;8.95;;;;;;;13.03;55.57;102941.63;10565315;28;20044;-79
2021/09/21 06:14:06;;;;;;;10.45;7.53;;;;;;;13.22;55.08;102848.00;10582801;28;20035;-79
2021/09/21 06:19:07;;;;;;;14.45;8.75;;;;;;;15.36;53.17;102947.47;10582484;28;20036;-79
2021/09/21 06:24:07;;;;;;;16.70;8.93;;;;;;;17.10;50.24;102960.28;10582961;28;20038;-79
2021/09/21 06:29:08;;;;;;;8.88;7.32;;;;;;;17.74;48.67;102949.47;10564335;28;20118;-79
2021/09/21 06:34:08;;;;;;;11.50;6.57;;;;;;;17.70;48.84;102961.81;10583186;28;20036;-79
2021/09/21 06:39:08;;;;;;;13.35;6.53;;;;;;;17.78;48.72;102956.25;10563773;28;20043;-79
2021/09/21 06:44:09;;;;;;;15.98;5.53;;;;;;;17.97;48.62;102967.63;10582639;28;20047;-79
2021/09/21 06:49:09;;;;;;;17.20;6.57;;;;;;;17.53;47.54;102807.00;10571898;28;20055;-80
2021/09/21 06:54:10;;;;;;;14.00;5.70;;;;;;;19.62;46.87;102998.03;10574219;28;20043;-79
2021/09/21 06:59:10;;;;;;;10.63;8.23;;;;;;;20.08;46.33;102968.97;10589986;28;20027;-77
2021/09/21 07:04:12;;;;;;;7.10;5.68;;;;;;;20.28;45.51;102974.47;10590505;28;20062;-79
2021/09/21 07:09:13;;;;;;;15.23;4.82;;;;;;;20.26;45.19;102940.78;10590377;28;20071;-79
2021/09/21 07:14:14;;;;;;;5.65;5.10;;;;;;;21.03;44.91;103008.06;10590378;28;20523;-80
2021/09/21 07:19:18;;;;;;;10.95;6.82;;;;;;;21.15;44.26;102989.78;10573468;28;20486;-80
2021/09/21 07:24:18;;;;;;;7.65;4.93;;;;;;;21.11;44.20;103022.41;10588753;28;20035;-79
2021/09/21 07:29:18;;;;;;;8.20;6.05;;;;;;;21.02;43.76;102996.16;10555706;28;20486;-79
2021/09/21 07:34:19;;;;;;;6.43;5.32;;;;;;;21.12;43.82;103028.78;10554227;28;20023;-79
2021/09/21 07:39:20;;;;;;;9.68;5.68;;;;;;;21.02;44.02;103015.44;10569382;28;20038;-79
2021/09/21 07:44:20;;;;;;;6.72;5.10;;;;;;;21.30;43.48;102986.75;10537194;28;20475;-79
2021/09/21 07:49:21;;;;;;;18.00;5.85;;;;;;;22.44;41.40;103015.38;10570314;28;20032;-79
2021/09/21 07:54:21;;;;;;;5.97;4.50;;;;;;;23.32;40.13;103047.41;10552483;28;20035;-79
2021/09/21 07:59:22;;;;;;;6.50;3.25;;;;;;;23.02;39.02;102926.59;10568979;28;20039;-79
2021/09/21 08:04:22;;;;;;;12.55;3.30;;;;;;;24.37;37.65;103047.84;10587766;28;20052;-79
2021/09/21 08:09:23;;;;;;;8.65;3.70;;;;;;;24.43;37.08;102989.88;10572323;28;20040;-79
2021/09/21 08:14:23;;;;;;;8.93;3.13;;;;;;;24.43;36.11;102978.78;10588685;28;20089;-79
2021/09/21 08:19:25;;;;;;;2.10;2.00;;;;;;;25.02;35.11;103051.66;10588497;28;20032;-79
2021/09/21 08:24:26;;;;;;;1.75;1.65;;;;;;;24.79;33.96;102909.28;10587511;28;20035;-79
2021/09/21 08:29:26;;;;;;;2.60;1.92;;;;;;;25.72;34.68;103003.50;10586607;28;20436;-79
2021/09/21 08:34:27;;;;;;;5.15;2.65;;;;;;;25.86;32.97;103038.19;10586461;28;20043;-80
2021/09/21 08:39:28;;;;;;;5.05;2.40;;;;;;;24.56;29.64;102943.38;10586706;28;20103;-80
2021/09/21 08:44:29;;;;;;;1.92;1.83;;;;;;;24.78;32.60;103018.41;10563648;28;20040;-79
2021/09/21 08:49:29;;;;;;;2.30;2.08;;;;;;;24.03;32.32;102943.47;10583947;28;20453;-80
2021/09/21 08:54:30;;;;;;;2.60;2.40;;;;;;;24.35;31.22;103052.81;10533900;28;20479;-81
2021/09/21 08:59:31;;;;;;;2.47;2.28;;;;;;;23.86;32.01;103004.16;10566355;28;20047;-79
2021/09/21 09:04:32;;;;;;;2.70;2.50;;;;;;;23.36;30.59;102927.84;10584937;28;20471;-80
2021/09/21 09:09:35;;;;;;;4.57;2.88;;;;;;;24.78;31.65;103032.25;10565829;28;20035;-79
2021/09/21 09:14:37;;;;;;;3.00;2.83;;;;;;;25.14;30.82;103041.41;10585219;28;20085;-79
2021/09/21 09:19:39;;;;;;;3.90;3.33;;;;;;;24.70;30.73;103074.19;10568007;28;20497;-80
2021/09/21 09:24:52;;;;;;;4.70;2.67;;;;;;;23.85;30.67;102836.47;10566985;28;20031;-79
2021/09/21 09:29:58;;;;;;;3.45;3.15;;;;;;;25.22;31.40;103035.50;10584382;28;20501;-80
2021/09/21 09:34:59;;;;;;;5.43;2.83;;;;;;;26.15;30.66;103054.81;10566910;28;20039;-79
2021/09/21 09:40:01;;;;;;;2.42;2.22;;;;;;;26.78;30.91;103047.28;10566475;28;20028;-80
2021/09/21 09:45:02;;;;;;;2.47;2.30;;;;;;;27.20;31.39;103007.84;10584066;28;20104;-80
2021/09/21 09:50:09;;;;;;;2.15;2.05;;;;;;;26.75;28.10;103048.63;10583633;28;20062;-80
2021/09/21 09:55:10;;;;;;;2.78;2.58;;;;;;;27.31;27.40;103062.50;10582979;28;20183;-80
2021/09/21 10:00:11;;;;;;;3.03;2.83;;;;;;;27.35;26.70;103058.94;10564525;28;20040;-80
2021/09/21 10:05:11;;;;;;;5.88;1.92;;;;;;;26.81;27.94;102905.84;10583045;28;20455;-80
2021/09/21 10:10:12;;;;;;;2.08;1.98;;;;;;;28.37;26.94;103059.22;10547639;28;20030;-80
2021/09/21 10:15:13;;;;;;;2.05;1.95;;;;;;;29.06;28.43;103066.72;10563981;28;20042;-79
2021/09/21 10:20:14;;;;;;;1.83;1.75;;;;;;;29.25;25.63;103053.16;10547380;28;20057;-80
2021/09/21 10:25:14;;;;;;;7.30;2.00;;;;;;;29.29;26.39;103019.94;10572464;28;20092;-81
2021/09/21 10:30:15;;;;;;;2.35;2.25;;;;;;;29.45;26.81;103041.22;10590838;28;20070;-80
2021/09/21 10:35:17;;;;;;;2.38;2.22;;;;;;;30.00;27.44;103058.44;10554796;28;20372;-80
2021/09/21 10:40:17;;;;;;;5.43;2.53;;;;;;;30.21;26.88;103026.63;10554598;28;20035;-80
2021/09/21 10:45:25;;;;;;;1.95;1.85;;;;;;;30.56;26.54;102991.34;10570669;28;20494;-80
2021/09/21 10:50:25;;;;;;;3.55;2.85;;;;;;;31.34;26.17;103043.22;10589654;28;20036;-80
2021/09/21 10:55:26;;;;;;;2.35;2.22;;;;;;;29.82;25.79;102850.31;10571035;28;20399;-80
2021/09/21 11:00:27;;;;;;;5.05;2.42;;;;;;;29.71;26.27;103002.22;10570436;28;20035;-80
2021/09/21 11:05:27;;;;;;;3.53;2.97;;;;;;;30.11;25.97;103024.63;10543254;28;20055;-81
2021/09/21 11:10:35;;;;;;;2.60;2.40;;;;;;;29.03;27.44;102938.94;10545843;28;20503;-80
2021/09/21 11:15:35;;;;;;;6.50;3.33;;;;;;;28.92;26.70;103032.03;10546529;28;20031;-80
2021/09/21 11:20:57;;;;;;;2.20;1.90;;;;;;;29.76;28.51;103044.97;10545768;28;20042;-80
2021/09/21 11:26:03;;;;;;;3.13;2.90;;;;;;;29.86;25.76;103035.78;10527944;28;20032;-80
2021/09/21 11:31:04;;;;;;;3.00;2.80;;;;;;;30.03;24.90;103036.38;10527811;28;20039;-80
2021/09/21 11:36:09;;;;;;;4.82;2.17;;;;;;;29.51;25.00;102889.38;10503781;28;20877;-79
2021/09/21 11:41:10;;;;;;;3.20;1.75;;;;;;;31.02;24.62;103036.03;10527721;28;20028;-80
2021/09/21 11:46:10;;;;;;;3.28;2.42;;;;;;;30.76;23.90;103013.69;10528107;28;20402;-80
2021/09/21 11:51:11;;;;;;;1.90;1.80;;;;;;;30.87;25.07;103028.53;10495232;28;20052;-80
2021/09/21 11:56:11;;;;;;;4.93;2.97;;;;;;;29.06;24.13;102881.78;10528732;28;20396;-80
2021/09/21 12:01:12;;;;;;;2.47;2.28;;;;;;;28.91;26.33;102992.16;10510817;28;20038;-80
2021/09/21 12:06:12;;;;;;;3.65;3.28;;;;;;;28.94;26.94;103027.00;10578660;28;20491;-80
2021/09/21 12:11:15;;;;;;;8.48;2.10;;;;;;;28.83;26.50;102900.63;10570061;28;20031;-80
2021/09/21 12:16:15;;;;;;;2.53;2.38;;;;;;;29.54;25.88;103019.19;10572928;28;20042;-79
2021/09/21 12:21:16;;;;;;;14.15;3.30;;;;;;;29.76;26.68;103017.03;10572870;28;20376;-80
2021/09/21 12:26:18;;;;;;;4.60;2.92;;;;;;;28.45;26.16;102788.41;10587776;28;20410;-80
2021/09/21 12:31:27;;;;;;;3.50;2.40;;;;;;;29.24;27.87;102916.69;10588400;28;20050;-80
2021/09/21 12:36:29;;;;;;;2.60;2.42;;;;;;;29.37;27.33;102902.22;10587398;28;20593;-80
2021/09/21 12:41:31;;;;;;;3.35;2.08;;;;;;;30.16;26.51;102979.09;10591521;28;20045;-81
2021/09/21 12:46:32;;;;;;;9.10;4.05;;;;;;;29.68;27.40;102972.09;10588286;28;20039;-82
2021/09/21 12:51:37;;;;;;;2.20;2.05;;;;;;;30.27;27.39;103025.50;10552574;28;20130;-80
2021/09/21 12:56:40;;;;;;;2.67;2.15;;;;;;;29.36;27.43;102965.56;10589376;28;20031;-81
2021/09/21 13:01:41;;;;;;;3.67;3.38;;;;;;;29.40;27.41;103016.94;10583264;28;20039;-80
2021/09/21 13:06:47;;;;;;;2.53;2.33;;;;;;;28.49;27.82;102891.81;10584639;28;20517;-80
2021/09/21 13:11:48;;;;;;;2.97;2.67;;;;;;;28.80;28.36;102968.09;10584006;28;20028;-80
2021/09/21 13:16:48;;;;;;;3.30;3.08;;;;;;;28.80;28.17;103011.88;10566299;28;20486;-79
2021/09/21 13:21:49;;;;;;;7.25;6.50;;;;;;;28.68;28.84;103029.66;10584292;28;20039;-79
2021/09/21 13:26:50;;;;;;;3.50;3.00;;;;;;;28.55;29.25;102976.31;10565000;28;20031;-80
2021/09/21 13:31:51;;;;;;;4.60;2.88;;;;;;;28.69;29.08;102999.84;10582969;28;20039;-80
2021/09/21 13:36:51;;;;;;;3.45;3.25;;;;;;;28.80;29.20;102997.94;10549054;28;20153;-80
2021/09/21 13:41:52;;;;;;;3.53;1.83;;;;;;;28.23;29.06;102940.97;10564246;28;20096;-80
2021/09/21 13:46:52;;;;;;;4.55;2.65;;;;;;;28.14;29.74;102985.19;10583695;28;20032;-79
2021/09/21 13:51:52;;;;;;;2.58;2.38;;;;;;;28.37;29.77;102992.34;10565770;28;20036;-80
2021/09/21 13:56:53;;;;;;;16.88;3.38;;;;;;;28.42;29.72;102984.03;10582907;28;20523;-80
2021/09/21 14:01:53;;;;;;;2.65;2.45;;;;;;;28.02;30.20;102956.69;10564764;28;20060;-79
2021/09/21 14:06:54;;;;;;;2.92;2.65;;;;;;;27.90;30.34;102987.50;10582636;28;20503;-80
2021/09/21 14:11:55;;;;;;;2.78;2.58;;;;;;;27.44;30.41;102928.56;10563651;28;20048;-79
2021/09/21 14:16:55;;;;;;;5.57;2.95;;;;;;;27.77;30.71;102977.63;10564503;28;20066;-80
2021/09/21 14:22:02;;;;;;;2.30;2.20;;;;;;;27.69;29.96;102980.84;10588680;28;20019;-78
2021/09/21 14:27:03;;;;;;;3.50;1.98;;;;;;;27.43;29.61;102981.69;10582653;28;20385;-80
2021/09/21 14:32:04;;;;;;;7.57;2.15;;;;;;;26.02;30.91;102847.75;10582141;28;20031;-79
2021/09/21 14:37:04;;;;;;;1.58;1.48;;;;;;;25.84;31.31;102828.59;10530013;28;20065;-80
2021/09/21 14:42:04;;;;;;;11.00;2.63;;;;;;;26.54;30.77;102947.41;10546798;28;20386;-79
2021/09/21 14:47:05;;;;;;;2.15;1.98;;;;;;;25.68;31.68;102863.53;10581858;28;20032;-79
2021/09/21 14:52:05;;;;;;;2.60;2.40;;;;;;;26.11;32.37;102985.06;10581996;28;20456;-78
2021/09/21 14:57:06;;;;;;;4.88;2.13;;;;;;;25.29;33.26;102947.44;10562965;28;20032;-79
2021/09/21 15:02:06;;;;;;;15.25;3.47;;;;;;;24.73;33.83;102981.41;10580791;28;20115;-79
2021/09/21 15:07:06;;;;;;;4.10;2.58;;;;;;;24.77;34.08;102994.56;10582376;28;20131;-79
2021/09/21 15:12:07;;;;;;;2.25;2.10;;;;;;;23.23;34.92;102813.84;10589063;28;20039;-78
2021/09/21 15:17:07;;;;;;;2.20;1.80;;;;;;;24.26;35.29;102998.00;10588875;28;20035;-80
2021/09/21 15:22:08;;;;;;;2.72;2.53;;;;;;;23.20;35.77;102853.88;10589279;28;20040;-79
2021/09/21 15:27:08;;;;;;;5.60;3.03;;;;;;;23.69;36.12;102965.25;10553766;28;20383;-79
2021/09/21 15:32:09;;;;;;;3.05;2.85;;;;;;;23.67;36.57;103006.09;10588496;28;20544;-78
2021/09/21 15:37:09;;;;;;;4.60;3.35;;;;;;;22.88;36.52;102872.56;10588076;28;20088;-79
2021/09/21 15:42:10;;;;;;;3.08;2.47;;;;;;;23.48;37.07;102987.88;10587693;28;20039;-79
2021/09/21 15:47:10;;;;;;;3.30;2.72;;;;;;;22.17;37.34;102797.56;10587675;28;20122;-79
2021/09/21 15:52:11;;;;;;;3.92;3.15;;;;;;;22.63;37.35;102900.28;10587760;28;20050;-79
2021/09/21 15:57:12;;;;;;;13.68;4.10;;;;;;;22.37;38.30;102913.28;10569456;28;20050;-79
2021/09/21 16:02:12;;;;;;;10.50;3.58;;;;;;;22.73;38.57;102992.56;10569236;28;20031;-79
2021/09/21 16:07:13;;;;;;;2.97;2.67;;;;;;;22.13;39.07;102900.31;10587527;28;20047;-80
2021/09/21 16:12:13;;;;;;;3.88;3.53;;;;;;;22.56;39.05;102979.56;10569561;28;20063;-80
2021/09/21 16:17:14;;;;;;;3.70;3.05;;;;;;;22.54;39.34;102995.53;10586815;28;20027;-79
2021/09/21 16:22:15;;;;;;;4.15;3.75;;;;;;;22.37;39.66;103001.63;10568001;28;20043;-78
2021/09/21 16:27:15;;;;;;;7.97;3.22;;;;;;;22.09;40.50;103006.69;10567877;28;20032;-79
2021/09/21 16:32:15;;;;;;;4.75;3.58;;;;;;;21.93;41.08;103002.56;10586077;28;20134;-80
2021/09/21 16:37:16;;;;;;;5.95;4.03;;;;;;;21.78;41.20;102972.53;10568778;28;20040;-79
2021/09/21 16:42:16;;;;;;;3.60;3.35;;;;;;;21.83;41.46;102983.75;10586245;28;20035;-79
2021/09/21 16:47:17;;;;;;;5.07;4.57;;;;;;;20.48;41.71;102784.53;10586319;28;20039;-78
2021/09/21 16:52:17;;;;;;;4.45;3.58;;;;;;;20.65;42.30;102869.22;10568231;28;20032;-79
2021/09/21 16:57:18;;;;;;;5.80;4.28;;;;;;;21.34;42.15;103007.28;10568084;28;20088;-79
2021/09/21 17:02:24;;;;;;;6.82;4.88;;;;;;;21.14;42.60;102975.16;10585478;28;20451;-79
2021/09/21 17:07:25;;;;;;;;;;;;;;;21.06;40.72;102997.44;10587371;28;20043;-80
2021/09/21 17:12:26;;;;;;;12.60;4.57;;;;;;;20.72;42.74;102949.03;10586247;28;19920;-79
2021/09/21 17:17:27;;;;;;;6.72;4.00;;;;;;;20.76;42.99;103008.09;10567731;28;20036;-79
2021/09/21 17:22:27;;;;;;;10.57;4.72;;;;;;;20.61;43.56;103015.75;10566317;28;20031;-79
2021/09/21 17:27:28;;;;;;;6.75;4.88;;;;;;;19.27;43.32;102837.91;10566838;28;20463;-79
2021/09/21 17:32:28;;;;;;;5.40;4.57;;;;;;;18.46;43.73;102728.09;10583552;28;20120;-79
2021/09/21 17:37:29;;;;;;;7.57;4.50;;;;;;;19.93;44.51;103015.88;10583878;28;20390;-79
2021/09/21 17:42:34;;;;;;;8.52;6.32;;;;;;;18.72;43.97;102837.09;10586643;28;20035;-79
2021/09/21 17:47:34;;;;;;;8.70;5.78;;;;;;;19.74;44.71;103026.63;10566038;28;20038;-79
2021/09/21 17:52:35;;;;;;;5.43;4.72;;;;;;;19.68;45.29;103034.84;10565129;28;20379;-79
2021/09/21 17:57:35;;;;;;;7.78;6.35;;;;;;;19.56;45.65;103045.59;10566325;28;20039;-79
2021/09/21 18:02:36;;;;;;;8.88;6.70;;;;;;;18.68;45.27;102918.16;10566233;28;20391;-81
2021/09/21 18:07:36;;;;;;;7.72;5.85;;;;;;;19.33;45.73;103053.28;10568230;28;20122;-79
2021/09/21 18:12:37;;;;;;;10.00;7.07;;;;;;;19.29;45.58;103061.09;10566625;28;20517;-79
2021/09/21 18:17:43;;;;;;;8.18;6.93;;;;;;;19.26;44.67;103070.56;10585318;28;20040;-79
2021/09/21 18:23:09;;;;;;;9.25;7.22;;;;;;;18.97;44.17;103079.06;10585441;28;20459;-79
2021/09/21 18:28:09;;;;;;;7.25;6.47;;;;;;;19.01;46.70;103061.13;10548876;28;20035;-79
2021/09/21 18:33:22;;;;;;;10.52;8.98;;;;;;;18.61;45.10;103054.47;10584284;28;20089;-78
2021/09/21 18:38:24;;;;;;;13.25;6.50;;;;;;;18.80;47.12;103076.63;10546875;28;20032;-78
2021/09/21 18:43:24;;;;;;;11.02;7.75;;;;;;;18.66;47.43;103069.28;10586891;28;20372;-78
2021/09/21 18:48:27;;;;;;;13.40;8.15;;;;;;;18.57;47.38;103070.50;10590532;28;20036;-78
2021/09/21 18:53:27;;;;;;;15.80;9.02;;;;;;;18.53;47.68;103086.47;10590449;28;20040;-78
2021/09/21 18:58:28;;;;;;;15.80;7.72;;;;;;;18.45;47.19;103072.91;10573399;28;20032;-80
2021/09/21 19:03:28;;;;;;;10.80;8.32;;;;;;;18.37;48.04;103075.78;10589218;28;20497;-80
2021/09/21 19:08:28;;;;;;;9.48;8.40;;;;;;;18.26;47.95;103074.41;10588363;28;20093;-79
2021/09/21 19:13:29;;;;;;;12.00;8.07;;;;;;;18.17;48.73;103070.09;10589834;28;20059;-79
2021/09/21 19:18:32;;;;;;;13.48;9.82;;;;;;;17.56;49.65;102982.75;10554529;28;20035;-79
2021/09/21 19:23:32;;;;;;;9.60;8.30;;;;;;;17.46;49.35;102978.66;10570705;28;20124;-79
2021/09/21 19:28:32;;;;;;;15.85;8.85;;;;;;;17.17;49.27;102950.28;10589760;28;20153;-79
2021/09/21 19:33:33;;;;;;;11.68;10.45;;;;;;;18.00;49.16;103093.34;10571611;28;20031;-79
2021/09/21 19:38:33;;;;;;;12.10;9.45;;;;;;;17.26;48.36;102987.47;10589458;28;20035;-79
2021/09/21 19:43:34;;;;;;;13.55;10.02;;;;;;;17.89;49.85;103092.78;10570915;28;20123;-78
2021/09/21 19:48:35;;;;;;;16.75;10.10;;;;;;;17.59;49.70;103047.28;10589209;28;20031;-78
2021/09/21 19:53:35;;;;;;;20.85;10.35;;;;;;;17.88;49.54;103109.44;10570799;27;20112;-78
2021/09/21 19:58:36;;;;;;;12.80;10.00;;;;;;;17.79;49.10;103122.38;10588865;28;20562;-79
2021/09/21 20:03:36;;;;;;;19.23;12.23;;;;;;;17.64;50.04;103096.84;10535463;28;20048;-79
2021/09/21 20:08:37;;;;;;;20.42;12.98;;;;;;;17.61;49.94;103102.72;10587183;28;20459;-78
2021/09/21 20:13:37;;;;;;;18.10;12.60;;;;;;;17.25;50.05;103042.41;10587974;28;20046;-79
2021/09/21 20:18:38;;;;;;;18.38;10.95;;;;;;;17.46;50.83;103099.16;10586941;28;20063;-79
2021/09/21 20:23:38;;;;;;;16.77;12.45;;;;;;;17.43;50.72;103095.75;10587074;28;20036;-79
2021/09/21 20:28:39;;;;;;;14.25;11.25;;;;;;;17.44;50.57;103094.72;10586643;28;20120;-79
2021/09/21 20:33:46;;;;;;;23.05;13.05;;;;;;;17.35;50.77;103075.81;10567906;28;20047;-78
2021/09/21 20:38:47;;;;;;;13.43;11.27;;;;;;;16.09;50.84;102894.19;10586675;28;20043;-78
2021/09/21 20:43:47;;;;;;;19.75;13.15;;;;;;;16.94;50.66;103038.84;10585869;28;20047;-78
2021/09/21 20:48:47;;;;;;;18.63;12.23;;;;;;;17.10;51.60;103073.38;10568069;28;20047;-78
2021/09/21 20:53:48;;;;;;;20.75;12.57;;;;;;;16.92;51.49;103048.25;10566889;28;20069;-79
2021/09/21 20:58:48;;;;;;;23.42;13.05;;;;;;;15.86;52.36;102882.44;10585746;28;20054;-78
2021/09/21 21:03:49;;;;;;;21.10;14.25;;;;;;;17.01;51.97;103074.50;10566989;28;20127;-78
2021/09/21 21:08:49;;;;;;;22.95;13.20;;;;;;;16.56;51.61;102993.34;10586859;28;20089;-79
2021/09/21 21:13:49;;;;;;;22.67;13.27;;;;;;;16.80;51.38;103039.66;10567119;28;20063;-80
2021/09/21 21:18:52;;;;;;;17.42;12.60;;;;;;;16.60;51.60;103020.16;10584156;28;20066;-78
2021/09/21 21:23:52;;;;;;;18.13;13.57;;;;;;;16.85;52.32;103091.94;10566164;28;20122;-77
2021/09/21 21:28:52;;;;;;;14.82;12.27;;;;;;;16.55;51.98;103036.28;10583508;28;20039;-79
2021/09/21 21:33:56;;;;;;;12.50;11.05;;;;;;;16.83;51.48;103087.69;10549120;28;20035;-79
2021/09/21 21:38:59;;;;;;;18.88;11.60;;;;;;;16.79;51.53;103089.94;10585500;28;20118;-78
2021/09/21 21:44:00;;;;;;;17.63;13.07;;;;;;;16.78;52.15;103087.38;10585094;28;20130;-79
2021/09/21 21:49:00;;;;;;;20.25;14.63;;;;;;;16.60;52.00;103065.81;10583384;28;20127;-78
2021/09/21 21:54:01;;;;;;;15.70;13.52;;;;;;;16.70;51.65;103083.66;10565309;28;20035;-79
2021/09/21 21:59:01;;;;;;;31.52;19.70;;;;;;;16.26;52.15;103009.69;10564947;28;20048;-78
2021/09/21 22:04:01;;;;;;;22.02;17.52;;;;;;;16.65;52.95;103074.31;10582569;28;20059;-79
2021/09/21 22:09:03;;;;;;;19.05;14.35;;;;;;;16.38;52.57;103045.66;10546733;28;20394;-78
2021/09/21 22:14:03;;;;;;;21.67;17.08;;;;;;;16.22;52.50;103014.69;10582289;28;20031;-79
2021/09/21 22:19:03;;;;;;;25.13;15.50;;;;;;;16.45;53.83;103068.50;10563598;28;20032;-78
2021/09/21 22:24:04;;;;;;;27.05;18.50;;;;;;;16.47;53.38;103085.59;10563962;28;20466;-79
2021/09/21 22:29:04;;;;;;;28.17;19.02;;;;;;;16.45;53.10;103065.78;10582175;28;20133;-79
2021/09/21 22:34:05;;;;;;;32.38;19.50;;;;;;;15.41;52.44;102892.31;10582721;28;20035;-78
2021/09/21 22:39:07;;;;;;;27.10;18.35;;;;;;;16.36;52.79;103048.56;10581554;28;20054;-79
2021/09/21 22:44:07;;;;;;;21.77;18.90;;;;;;;16.36;53.30;103048.56;10581993;28;20043;-78
2021/09/21 22:49:08;;;;;;;31.05;20.73;;;;;;;16.32;53.00;103049.13;10564079;28;20364;-79
2021/09/21 22:54:08;;;;;;;24.65;19.30;;;;;;;16.25;52.86;103041.66;10582517;28;20042;-78
2021/09/21 22:59:09;;;;;;;25.13;17.77;;;;;;;16.24;53.04;103058.22;10582805;28;20089;-79